Terminal Aerodrome Forecast
Issued by NWS

Home | Current Version | Previous Version | Graphics & Text | Print | Product List | Glossary On
Versions: 1 2 3 4 5 6 7 8 9 10 11 12 13 14 15
000
FTUS45 KGGW 200536
TAFOLF
TAF
KOLF 200536Z 2006/2106 26004KT 6SM BR FEW080 SCT130
     FM201200 25005KT 2SM BR BKN090
     FM201500 26005KT 1SM BR BKN050
     FM201900 26006KT P6SM BKN070
     FM210000 28005KT 3SM BR BKN050
     FM210200 27005KT 1/2SM FG BKN020=

USA.gov is the U.S. government's official web portal to all federal, state and local government web resources and services.